»·PEaware :: N102MR KSAN-F70

N102MR :: KSAN-F70

FLIGHT INFORMATION

Flight Status: Arrived
Operator: Privately registered:
United States
More flights under this callsign
Pilot: Michael R. (16974)
Aircraft: CESSNA 172 SKYHAWK
(C172)
More flights by this aircraft type
Origin: KSAN San Diego Intl-Lindbergh
United States
Destination: F70 French Valley
United States
More flights between these airports :: More routes between these airports
Route: +
File this flight plan on PilotEdge
Remarks:
Altitude:
(Current/Filed)
3,500ft
Speed:
(Current/Filed)
0kts
Departed: 24-Nov-17 11:05 AM
Arrived: 24-Nov-17 11:37 AM
Distance/Time
Traveled:
51nm/0:32
Distance/Time
To Go:
Arrived

Flight Plot

Page will automatically refresh every two minutes.


Map Options




Map Legend


Flown Route
Filed Route
Departure Airport
Arrival Airport
Navaid (VOR, NDB)
Fix

Horizontal Profiles

Position Reports

Time Latitude Longitude Heading Altitude Ground
Speed
24-Nov-17 10:57 32.732062 -117.193350 285 17ft 0kts
24-Nov-17 10:58 32.732062 -117.193350 285 17ft 0kts
24-Nov-17 10:59 32.732062 -117.193350 285 17ft 0kts
24-Nov-17 11:00 32.732063 -117.193351 284 17ft 0kts
24-Nov-17 11:01 32.732614 -117.192170 26 15ft 0kts
24-Nov-17 11:02 32.732615 -117.192170 26 15ft 0kts
24-Nov-17 11:03 32.732615 -117.192170 26 15ft 0kts
24-Nov-17 11:04 32.732541 -117.189719 105 15ft 21kts
24-Nov-17 11:05 32.730567 -117.181577 104 15ft 24kts
24-Nov-17 11:06 32.729563 -117.176511 70 19ft 0kts
24-Nov-17 11:07 32.729563 -117.176511 70 19ft 0kts
24-Nov-17 11:08 32.729563 -117.176511 70 19ft 0kts
24-Nov-17 11:09 32.730470 -117.176934 283 20ft 0kts
24-Nov-17 11:10 32.734140 -117.190973 283 285ft 71kts
24-Nov-17 11:11 32.748659 -117.210495 320 829ft 96kts
24-Nov-17 11:12 32.773095 -117.228252 350 1245ft 113kts
24-Nov-17 11:13 32.804239 -117.229812 0 1685ft 118kts
24-Nov-17 11:14 32.836846 -117.227677 0 2183ft 116kts
24-Nov-17 11:15 32.868389 -117.222327 5 2676ft 112kts
24-Nov-17 11:16 32.897963 -117.217443 9 3120ft 107kts
24-Nov-17 11:17 32.930464 -117.212549 7 2990ft 120kts
24-Nov-17 11:18 32.963504 -117.208033 9 2983ft 120kts
24-Nov-17 11:19 32.996832 -117.203155 13 2982ft 118kts
24-Nov-17 11:20 33.029327 -117.197062 9 2977ft 118kts
24-Nov-17 11:21 33.062690 -117.192006 5 2978ft 120kts
24-Nov-17 11:22 33.095035 -117.188105 1 2961ft 113kts
24-Nov-17 11:23 33.125451 -117.185056 2 2957ft 112kts
24-Nov-17 11:24 33.155333 -117.181304 2 2955ft 113kts
24-Nov-17 11:25 33.187057 -117.177190 2 2952ft 115kts
24-Nov-17 11:26 33.219296 -117.172991 3 2949ft 117kts
24-Nov-17 11:27 33.252049 -117.168706 3 2947ft 119kts
24-Nov-17 11:28 33.285037 -117.164385 2 2946ft 118kts
24-Nov-17 11:29 33.317524 -117.160142 2 2944ft 117kts
24-Nov-17 11:30 33.349433 -117.153882 10 2942ft 116kts
24-Nov-17 11:31 33.380459 -117.144805 10 2941ft 114kts
24-Nov-17 11:32 33.411034 -117.136100 10 2941ft 112kts
24-Nov-17 11:33 33.436940 -117.128996 6 2892ft 82kts
24-Nov-17 11:34 33.460335 -117.125013 7 2938ft 87kts
24-Nov-17 11:35 33.484847 -117.119566 0 2949ft 97kts
24-Nov-17 11:36 33.514603 -117.116777 354 2962ft 107kts
24-Nov-17 11:37 33.545123 -117.120422 346 2641ft 105kts
24-Nov-17 11:38 33.570853 -117.121372 6 2604ft 87kts
24-Nov-17 11:39 33.593540 -117.112357 17 2628ft 85kts
24-Nov-17 11:40 33.611804 -117.115371 246 2622ft 62kts
24-Nov-17 11:41 33.595012 -117.123219 192 2027ft 88kts
24-Nov-17 11:42 33.576273 -117.127950 193 1354ft 30kts
24-Nov-17 11:43 33.575127 -117.129846 239 1354ft 10kts
24-Nov-17 11:44 33.575088 -117.129888 199 1354ft 0kts
24-Nov-17 11:45 33.575088 -117.129888 199 1354ft 0kts
24-Nov-17 11:46 33.575088 -117.129888 199 1354ft 0kts
24-Nov-17 11:47 33.575088 -117.129888 199 1354ft 0kts
24-Nov-17 11:48 33.575088 -117.129888 199 1354ft 0kts
24-Nov-17 11:49 33.575088 -117.129888 199 1354ft 0kts
24-Nov-17 11:50 33.575088 -117.129888 199 1354ft 0kts
24-Nov-17 11:51 33.575088 -117.129888 199 1354ft 0kts
24-Nov-17 11:52 33.575088 -117.129888 199 1354ft 0kts
24-Nov-17 11:53 33.575088 -117.129888 199 1354ft 0kts
24-Nov-17 11:54 33.575088 -117.129888 199 1354ft 0kts
24-Nov-17 11:55 33.575088 -117.129888 199 1354ft 0kts
24-Nov-17 11:56 33.575088 -117.129888 199 1354ft 0kts

Navigation Log

Ident Type
1. KSAN Airport
2. F70 Airport